Time;durP1;ratioP1;P1;durP2;ratioP2;P2;SDS_P1;SDS_P2;PMS_P1;PMS_P2;Temp;Humidity;BMP_temperature;BMP_pressure;BME280_temperature;BME280_humidity;BME280_pressure;Samples;Min_cycle;Max_cycle;Signal;HPM_P1;HPM_P2
2023/12/30 00:01:55;;;;;;;71.53;46.58;;;;;;;;;;5005516;28;20026;-50
2023/12/30 00:04:22;;;;;;;67.38;44.88;;;;;;;;;;5010845;28;20116;-49
2023/12/30 00:06:48;;;;;;;65.65;44.65;;;;;;;;;;5011210;28;20014;-47
2023/12/30 00:09:15;;;;;;;65.75;43.00;;;;;;;;;;5027253;28;20028;-52
2023/12/30 00:11:41;;;;;;;71.13;41.45;;;;;;;;;;5006554;28;20022;-51
2023/12/30 00:14:07;;;;;;;63.78;42.15;;;;;;;;;;5005016;28;20026;-52
2023/12/30 00:16:33;;;;;;;60.85;40.78;;;;;;;;;;5011712;28;20567;-52
2023/12/30 00:18:59;;;;;;;72.10;45.42;;;;;;;;;;5010820;28;20026;-52
2023/12/30 00:21:25;;;;;;;72.45;45.42;;;;;;;;;;5008270;28;20109;-51
2023/12/30 00:23:52;;;;;;;71.97;44.17;;;;;;;;;;4993954;28;20023;-53
2023/12/30 00:26:25;;;;;;;68.78;44.60;;;;;;;;;;4992712;28;20026;-52
2023/12/30 00:29:06;;;;;;;75.10;44.67;;;;;;;;;;4977481;28;20080;-53
2023/12/30 00:31:33;;;;;;;68.40;44.38;;;;;;;;;;5004743;28;20396;-54
2023/12/30 00:34:00;;;;;;;71.78;45.05;;;;;;;;;;4997629;28;20034;-53
2023/12/30 00:36:26;;;;;;;;;;;;;;;;;;4993186;28;20074;-48
2023/12/30 00:38:55;;;;;;;80.32;47.78;;;;;;;;;;5008558;28;19910;-52
2023/12/30 00:41:25;;;;;;;73.90;47.30;;;;;;;;;;4992469;28;20101;-49
2023/12/30 00:43:51;;;;;;;78.20;47.30;;;;;;;;;;5010478;28;20033;-53
2023/12/30 00:46:21;;;;;;;73.00;45.67;;;;;;;;;;4985092;28;20032;-49
2023/12/30 00:48:48;;;;;;;74.30;47.25;;;;;;;;;;4958915;28;20026;-53
2023/12/30 00:51:14;;;;;;;71.53;47.17;;;;;;;;;;4999445;28;20025;-52
2023/12/30 00:53:40;;;;;;;74.67;46.53;;;;;;;;;;4978188;28;20033;-49
2023/12/30 00:56:07;;;;;;;73.68;48.22;;;;;;;;;;4974987;28;20034;-51
2023/12/30 00:58:33;;;;;;;76.60;47.57;;;;;;;;;;4974824;28;20034;-49
2023/12/30 01:00:59;;;;;;;76.53;48.95;;;;;;;;;;4965027;28;20892;-49
2023/12/30 01:03:25;;;;;;;73.88;46.90;;;;;;;;;;5027792;23;20194;-49
2023/12/30 01:05:54;;;;;;;75.65;46.40;;;;;;;;;;5033403;28;20352;-51
2023/12/30 01:08:21;;;;;;;78.32;48.10;;;;;;;;;;5033220;28;20482;-52
2023/12/30 01:10:47;;;;;;;70.20;46.55;;;;;;;;;;5033080;28;20124;-48
2023/12/30 01:13:13;;;;;;;74.40;47.80;;;;;;;;;;5032023;28;20030;-47
2023/12/30 01:15:39;;;;;;;74.57;47.97;;;;;;;;;;5035877;28;20116;-48
2023/12/30 01:18:05;;;;;;;78.57;47.53;;;;;;;;;;5051026;28;20116;-48
2023/12/30 01:20:32;;;;;;;73.70;46.37;;;;;;;;;;5047226;28;20032;-46
2023/12/30 01:22:58;;;;;;;77.15;47.70;;;;;;;;;;5045359;28;20035;-50
2023/12/30 01:25:24;;;;;;;69.53;45.47;;;;;;;;;;5053903;28;20567;-49
2023/12/30 01:27:51;;;;;;;76.55;46.78;;;;;;;;;;5053616;28;20079;-48
2023/12/30 01:30:17;;;;;;;80.50;47.00;;;;;;;;;;5048283;28;20017;-49
2023/12/30 01:32:44;;;;;;;74.18;48.63;;;;;;;;;;5042193;28;20036;-50
2023/12/30 01:35:10;;;;;;;72.75;44.08;;;;;;;;;;5054938;28;20033;-48
2023/12/30 01:37:36;;;;;;;73.55;46.33;;;;;;;;;;5055002;28;20029;-51
2023/12/30 01:40:03;;;;;;;75.50;46.75;;;;;;;;;;5053420;28;20033;-48
2023/12/30 01:42:29;;;;;;;79.00;48.17;;;;;;;;;;5050094;28;20030;-52
2023/12/30 01:44:55;;;;;;;78.30;47.55;;;;;;;;;;5034317;28;20030;-47
2023/12/30 01:47:22;;;;;;;74.85;47.70;;;;;;;;;;5051139;28;20200;-49
2023/12/30 01:49:49;;;;;;;83.10;48.58;;;;;;;;;;5054944;28;20033;-50
2023/12/30 01:52:15;;;;;;;83.95;49.08;;;;;;;;;;5050792;28;20108;-46
2023/12/30 01:54:42;;;;;;;85.57;49.20;;;;;;;;;;5035314;28;20373;-48
2023/12/30 01:57:09;;;;;;;82.03;49.67;;;;;;;;;;5045957;28;20487;-47
2023/12/30 01:59:36;;;;;;;84.93;49.47;;;;;;;;;;5033565;28;20033;-47
2023/12/30 02:02:03;;;;;;;81.18;48.50;;;;;;;;;;5042381;28;20025;-47
2023/12/30 02:04:30;;;;;;;87.47;49.38;;;;;;;;;;5054722;28;20037;-51
2023/12/30 02:06:56;;;;;;;96.63;49.90;;;;;;;;;;5053631;28;20033;-51
2023/12/30 02:09:23;;;;;;;93.53;51.60;;;;;;;;;;5053166;28;20021;-47
2023/12/30 02:11:49;;;;;;;114.07;59.63;;;;;;;;;;5052608;28;20133;-47
2023/12/30 02:14:28;;;;;;;100.23;54.70;;;;;;;;;;5034666;28;20033;-48
2023/12/30 02:16:54;;;;;;;97.65;52.72;;;;;;;;;;5049053;28;20764;-48
2023/12/30 02:19:21;;;;;;;105.30;53.20;;;;;;;;;;5053126;28;20033;-48
2023/12/30 02:21:47;;;;;;;100.47;53.33;;;;;;;;;;5042402;28;20032;-49
2023/12/30 02:24:13;;;;;;;97.17;53.30;;;;;;;;;;5049689;28;20807;-48
2023/12/30 02:26:39;;;;;;;100.82;54.65;;;;;;;;;;5035598;28;20021;-47
2023/12/30 02:29:09;;;;;;;113.18;55.55;;;;;;;;;;5049739;28;20175;-46
2023/12/30 02:31:38;;;;;;;106.20;56.00;;;;;;;;;;5049416;28;20113;-48
2023/12/30 02:34:04;;;;;;;96.85;56.78;;;;;;;;;;5034192;28;20030;-48
2023/12/30 02:36:30;;;;;;;103.32;57.78;;;;;;;;;;5034359;28;20025;-47
2023/12/30 02:38:57;;;;;;;;;;;;;;;;;;5039768;28;20017;-46
2023/12/30 02:41:27;;;;;;;101.53;54.03;;;;;;;;;;5037185;28;20012;-47
2023/12/30 02:43:54;;;;;;;97.15;53.08;;;;;;;;;;5053075;28;20483;-48
2023/12/30 02:46:20;;;;;;;85.35;50.72;;;;;;;;;;5043255;28;20438;-47
2023/12/30 02:48:46;;;;;;;92.55;53.95;;;;;;;;;;5042259;28;20075;-48
2023/12/30 02:51:16;;;;;;;87.70;51.30;;;;;;;;;;5052746;28;20037;-49
2023/12/30 02:53:42;;;;;;;86.45;53.10;;;;;;;;;;5051988;28;20052;-50
2023/12/30 02:56:17;;;;;;;98.93;56.83;;;;;;;;;;5052521;28;20090;-46
2023/12/30 02:58:44;;;;;;;96.05;56.20;;;;;;;;;;5049497;28;20025;-49
2023/12/30 03:01:10;;;;;;;102.70;57.10;;;;;;;;;;5053910;28;20033;-47
2023/12/30 03:03:36;;;;;;;97.63;53.92;;;;;;;;;;5046647;28;20368;-47
2023/12/30 03:06:02;;;;;;;97.30;54.67;;;;;;;;;;5052425;28;20021;-52
2023/12/30 03:08:28;;;;;;;99.50;57.87;;;;;;;;;;5049608;28;20029;-52
2023/12/30 03:10:55;;;;;;;98.40;57.65;;;;;;;;;;5052350;28;20051;-46
2023/12/30 03:13:22;;;;;;;102.88;58.88;;;;;;;;;;5046086;28;20483;-53
2023/12/30 03:15:48;;;;;;;101.82;57.90;;;;;;;;;;5034559;28;20566;-50
2023/12/30 03:18:14;;;;;;;98.07;57.30;;;;;;;;;;5038169;28;20036;-46
2023/12/30 03:20:40;;;;;;;98.63;56.92;;;;;;;;;;5032211;28;20084;-48
2023/12/30 03:23:06;;;;;;;99.65;56.58;;;;;;;;;;5038151;28;20391;-49
2023/12/30 03:25:32;;;;;;;103.20;60.35;;;;;;;;;;5048466;28;20033;-48
2023/12/30 03:27:59;;;;;;;87.80;55.35;;;;;;;;;;5036335;28;20080;-47
2023/12/30 03:30:25;;;;;;;94.18;56.50;;;;;;;;;;5050993;28;20029;-48
2023/12/30 03:32:51;;;;;;;101.88;57.72;;;;;;;;;;5036301;28;20030;-47
2023/12/30 03:35:18;;;;;;;108.43;58.03;;;;;;;;;;5033104;28;20559;-48
2023/12/30 03:37:45;;;;;;;95.63;54.57;;;;;;;;;;5032946;28;20033;-47
2023/12/30 03:40:11;;;;;;;102.82;57.53;;;;;;;;;;5036201;28;20096;-48
2023/12/30 03:42:37;;;;;;;106.22;59.42;;;;;;;;;;5033865;28;20037;-48
2023/12/30 03:45:05;;;;;;;103.40;57.65;;;;;;;;;;5050757;28;20025;-47
2023/12/30 03:47:31;;;;;;;98.28;56.58;;;;;;;;;;5033956;28;20033;-52
2023/12/30 03:49:57;;;;;;;100.13;60.28;;;;;;;;;;5038607;28;20074;-53
2023/12/30 03:52:23;;;;;;;102.40;58.75;;;;;;;;;;5037676;28;20116;-48
2023/12/30 03:54:51;;;;;;;101.82;54.72;;;;;;;;;;5043299;28;20032;-48
2023/12/30 03:57:17;;;;;;;107.30;60.67;;;;;;;;;;5031389;28;20387;-48
2023/12/30 03:59:43;;;;;;;107.22;59.53;;;;;;;;;;5039765;28;20028;-48
2023/12/30 04:02:10;;;;;;;106.60;60.35;;;;;;;;;;5049273;28;20036;-49
2023/12/30 04:04:36;;;;;;;100.47;58.60;;;;;;;;;;5052202;28;20056;-50
2023/12/30 04:07:02;;;;;;;102.35;59.20;;;;;;;;;;5050388;28;20029;-48
2023/12/30 04:09:28;;;;;;;103.68;58.88;;;;;;;;;;5051150;28;20028;-47
2023/12/30 04:11:55;;;;;;;106.07;63.83;;;;;;;;;;5047315;28;20239;-50
2023/12/30 04:14:21;;;;;;;109.22;58.65;;;;;;;;;;5050280;28;20029;-46
2023/12/30 04:16:47;;;;;;;106.72;57.47;;;;;;;;;;5047761;28;20053;-47
2023/12/30 04:19:14;;;;;;;98.95;57.05;;;;;;;;;;5032742;28;20025;-47
2023/12/30 04:21:40;;;;;;;;;;;;;;;;;;5031412;28;20108;-48
2023/12/30 04:24:06;;;;;;;128.85;68.28;;;;;;;;;;5036709;28;20431;-48
2023/12/30 04:26:33;;;;;;;108.00;63.35;;;;;;;;;;5050863;28;20025;-49
2023/12/30 04:29:00;;;;;;;107.80;60.40;;;;;;;;;;5050401;28;20017;-47
2023/12/30 04:31:26;;;;;;;106.28;62.08;;;;;;;;;;5047636;28;20391;-47
2023/12/30 04:33:52;;;;;;;123.32;71.70;;;;;;;;;;5030900;28;20025;-50
2023/12/30 04:36:18;;;;;;;128.80;76.30;;;;;;;;;;5032058;28;20091;-46
2023/12/30 04:38:46;;;;;;;121.20;72.55;;;;;;;;;;5038874;28;20029;-46
2023/12/30 04:41:12;;;;;;;117.45;71.45;;;;;;;;;;5030654;28;20034;-47
2023/12/30 04:43:38;;;;;;;126.28;68.75;;;;;;;;;;5031579;28;20432;-48
2023/12/30 04:46:04;;;;;;;122.97;71.22;;;;;;;;;;5039463;28;20494;-48
2023/12/30 04:48:32;;;;;;;110.47;64.68;;;;;;;;;;5039623;28;20483;-49
2023/12/30 04:50:58;;;;;;;106.07;57.35;;;;;;;;;;5030391;28;20029;-48
2023/12/30 04:53:25;;;;;;;98.97;57.53;;;;;;;;;;5042886;28;20391;-48
2023/12/30 04:55:51;;;;;;;95.97;57.28;;;;;;;;;;5049258;28;20040;-48
2023/12/30 04:58:18;;;;;;;91.45;55.00;;;;;;;;;;5050277;28;20131;-50
2023/12/30 05:00:44;;;;;;;95.65;58.10;;;;;;;;;;5050293;28;20071;-49
2023/12/30 05:03:10;;;;;;;89.32;57.30;;;;;;;;;;5051501;28;20029;-49
2023/12/30 05:05:36;;;;;;;101.68;61.95;;;;;;;;;;5050274;28;20116;-51
2023/12/30 05:08:04;;;;;;;100.32;57.25;;;;;;;;;;5051392;28;20025;-49
2023/12/30 05:10:30;;;;;;;;;;;;;;;;;;5050816;28;20109;-49
2023/12/30 05:12:56;;;;;;;87.35;51.60;;;;;;;;;;5050114;28;19908;-50
2023/12/30 05:15:22;;;;;;;97.55;55.03;;;;;;;;;;5051592;28;20037;-48
2023/12/30 05:17:48;;;;;;;96.53;57.53;;;;;;;;;;5051320;28;20025;-47
2023/12/30 05:20:16;;;;;;;101.80;57.58;;;;;;;;;;5051443;28;20059;-48
2023/12/30 05:22:42;;;;;;;98.38;58.15;;;;;;;;;;5050018;28;20033;-48
2023/12/30 05:25:09;;;;;;;100.53;57.72;;;;;;;;;;5051482;28;20040;-49
2023/12/30 05:27:38;;;;;;;98.03;56.28;;;;;;;;;;5050163;28;20021;-50
2023/12/30 05:30:08;;;;;;;97.68;56.42;;;;;;;;;;5051230;28;20032;-50
2023/12/30 05:32:35;;;;;;;95.32;58.75;;;;;;;;;;5051277;28;20032;-47
2023/12/30 05:35:01;;;;;;;98.97;57.85;;;;;;;;;;5051292;28;20029;-48
2023/12/30 05:37:27;;;;;;;95.68;59.45;;;;;;;;;;5050072;28;20025;-47
2023/12/30 05:39:54;;;;;;;101.90;58.15;;;;;;;;;;5051210;28;20029;-48
2023/12/30 05:42:20;;;;;;;94.40;58.03;;;;;;;;;;5050038;28;20037;-49
2023/12/30 05:44:47;;;;;;;98.57;59.97;;;;;;;;;;5051151;28;20258;-49
2023/12/30 05:47:13;;;;;;;96.90;58.65;;;;;;;;;;5049916;28;20060;-50
2023/12/30 05:49:40;;;;;;;96.78;58.60;;;;;;;;;;5051019;28;20051;-48
2023/12/30 05:52:07;;;;;;;99.50;58.67;;;;;;;;;;5051240;28;20441;-48
2023/12/30 05:54:34;;;;;;;96.57;58.30;;;;;;;;;;5051086;28;20021;-50
2023/12/30 05:57:00;;;;;;;92.78;55.75;;;;;;;;;;5051156;28;20052;-48
2023/12/30 05:59:27;;;;;;;97.22;56.38;;;;;;;;;;5049749;28;20079;-48
2023/12/30 06:01:53;;;;;;;83.00;53.20;;;;;;;;;;5050934;28;20491;-46
2023/12/30 06:04:19;;;;;;;100.87;55.63;;;;;;;;;;5050812;28;20052;-48
2023/12/30 06:06:45;;;;;;;86.82;52.58;;;;;;;;;;5067610;28;20132;-48
2023/12/30 06:09:11;;;;;;;86.03;51.90;;;;;;;;;;5054642;28;20032;-48
2023/12/30 06:11:38;;;;;;;82.33;52.33;;;;;;;;;;5054663;28;20033;-46
2023/12/30 06:14:04;;;;;;;85.32;51.75;;;;;;;;;;5054458;28;20032;-49
2023/12/30 06:16:30;;;;;;;86.93;51.78;;;;;;;;;;5054556;28;20061;-49
2023/12/30 06:18:56;;;;;;;87.72;52.90;;;;;;;;;;5054331;28;20025;-50
2023/12/30 06:21:23;;;;;;;86.93;51.78;;;;;;;;;;5054524;28;20119;-50
2023/12/30 06:23:49;;;;;;;85.88;52.53;;;;;;;;;;5054402;28;20017;-50
2023/12/30 06:26:15;;;;;;;75.65;47.88;;;;;;;;;;5054422;28;20028;-48
2023/12/30 06:28:41;;;;;;;81.13;51.45;;;;;;;;;;5054251;28;20554;-48
2023/12/30 06:31:07;;;;;;;80.35;50.25;;;;;;;;;;5054420;28;20057;-51
2023/12/30 06:33:33;;;;;;;79.20;50.60;;;;;;;;;;5054195;28;20399;-51
2023/12/30 06:36:00;;;;;;;81.97;48.38;;;;;;;;;;5054240;28;20025;-48
2023/12/30 06:38:26;;;;;;;77.35;49.08;;;;;;;;;;5052923;28;20116;-50
2023/12/30 06:40:52;;;;;;;75.15;48.38;;;;;;;;;;5053123;28;20032;-49
2023/12/30 06:43:18;;;;;;;77.87;48.67;;;;;;;;;;5052808;28;20036;-50
2023/12/30 06:45:44;;;;;;;80.43;48.85;;;;;;;;;;5054028;28;20387;-48
2023/12/30 06:48:11;;;;;;;75.50;49.58;;;;;;;;;;5053881;28;20108;-48
2023/12/30 06:50:37;;;;;;;71.97;47.15;;;;;;;;;;5054036;28;20060;-48
2023/12/30 06:53:03;;;;;;;71.93;48.97;;;;;;;;;;5053949;28;20506;-48
2023/12/30 06:55:29;;;;;;;70.37;49.63;;;;;;;;;;5054077;28;20120;-49
2023/12/30 06:57:55;;;;;;;81.43;50.25;;;;;;;;;;5052418;28;20029;-48
2023/12/30 07:00:22;;;;;;;72.33;47.70;;;;;;;;;;5053793;28;20048;-49
2023/12/30 07:02:48;;;;;;;74.73;49.80;;;;;;;;;;5064436;28;20040;-58
2023/12/30 07:05:14;;;;;;;74.88;46.20;;;;;;;;;;5048479;28;20380;-58
2023/12/30 07:07:40;;;;;;;73.88;47.28;;;;;;;;;;5046538;28;20542;-58
2023/12/30 07:10:07;;;;;;;79.13;50.33;;;;;;;;;;5043336;28;20029;-56
2023/12/30 07:12:33;;;;;;;74.47;46.15;;;;;;;;;;5051638;28;20022;-56
2023/12/30 07:14:59;;;;;;;74.43;49.90;;;;;;;;;;5043781;28;20170;-57
2023/12/30 07:17:26;;;;;;;73.40;46.67;;;;;;;;;;5052027;28;20079;-47
2023/12/30 07:19:52;;;;;;;69.32;42.88;;;;;;;;;;5044551;28;20041;-49
2023/12/30 07:22:19;;;;;;;69.65;46.25;;;;;;;;;;5033794;28;20060;-49
2023/12/30 07:24:49;;;;;;;69.28;47.70;;;;;;;;;;5044150;28;20033;-47
2023/12/30 07:27:15;;;;;;;70.65;46.53;;;;;;;;;;5033247;28;20022;-51
2023/12/30 07:29:41;;;;;;;78.40;47.80;;;;;;;;;;5044222;28;20025;-53
2023/12/30 07:32:07;;;;;;;75.30;47.90;;;;;;;;;;5033673;28;20044;-48
2023/12/30 07:34:34;;;;;;;65.88;43.95;;;;;;;;;;5042986;28;20346;-48
2023/12/30 07:37:04;;;;;;;72.05;44.83;;;;;;;;;;5053263;28;20033;-48
2023/12/30 07:39:32;;;;;;;67.22;43.47;;;;;;;;;;5043916;28;20028;-48
2023/12/30 07:41:59;;;;;;;66.20;45.72;;;;;;;;;;5053280;28;20480;-48
2023/12/30 07:44:25;;;;;;;;;;;;;;;;;;5041044;28;20030;-48
2023/12/30 07:46:52;;;;;;;66.25;43.00;;;;;;;;;;5052941;28;19915;-49
2023/12/30 07:49:18;;;;;;;65.85;43.50;;;;;;;;;;5046174;28;20112;-49
2023/12/30 07:51:45;;;;;;;65.32;44.28;;;;;;;;;;5048358;28;20033;-49
2023/12/30 07:54:12;;;;;;;63.13;43.95;;;;;;;;;;5041116;28;20025;-52
2023/12/30 07:56:39;;;;;;;66.50;46.50;;;;;;;;;;5033420;28;20041;-49
2023/12/30 07:59:05;;;;;;;72.47;45.33;;;;;;;;;;5036486;28;20558;-51
2023/12/30 08:01:31;;;;;;;68.68;46.65;;;;;;;;;;5033325;28;20291;-53
2023/12/30 08:03:57;;;;;;;69.18;45.65;;;;;;;;;;5049527;28;20114;-55
2023/12/30 08:06:24;;;;;;;67.65;44.28;;;;;;;;;;5052634;28;20103;-49
2023/12/30 08:08:50;;;;;;;67.00;43.95;;;;;;;;;;5040069;28;20034;-53
2023/12/30 08:11:16;;;;;;;68.85;45.35;;;;;;;;;;5048756;28;20518;-48
2023/12/30 08:13:42;;;;;;;74.13;45.58;;;;;;;;;;5045590;28;20055;-48
2023/12/30 08:16:08;;;;;;;66.32;43.15;;;;;;;;;;5047742;28;20029;-48
2023/12/30 08:18:34;;;;;;;70.18;45.65;;;;;;;;;;5045704;28;20041;-49
2023/12/30 08:21:01;;;;;;;71.13;45.65;;;;;;;;;;5046512;28;20087;-48
2023/12/30 08:23:27;;;;;;;71.67;49.33;;;;;;;;;;5045638;28;20032;-48
2023/12/30 08:25:53;;;;;;;68.05;46.38;;;;;;;;;;5032433;28;20121;-48
2023/12/30 08:28:20;;;;;;;70.35;44.70;;;;;;;;;;5030916;28;20033;-48
2023/12/30 08:30:46;;;;;;;73.18;44.97;;;;;;;;;;5050839;28;20033;-51
2023/12/30 08:33:14;;;;;;;62.15;44.72;;;;;;;;;;5045319;28;20391;-49
2023/12/30 08:35:40;;;;;;;70.05;46.28;;;;;;;;;;5040080;28;20572;-54
2023/12/30 08:38:06;;;;;;;67.15;45.45;;;;;;;;;;5050689;28;20379;-49
2023/12/30 08:40:32;;;;;;;67.88;45.63;;;;;;;;;;5040714;28;20037;-49
2023/12/30 08:42:59;;;;;;;68.45;46.40;;;;;;;;;;5033300;28;20494;-48
2023/12/30 08:45:25;;;;;;;66.50;44.38;;;;;;;;;;5040920;28;20040;-48
2023/12/30 08:47:52;;;;;;;62.53;44.58;;;;;;;;;;5034419;28;20021;-48
2023/12/30 08:50:18;;;;;;;66.85;46.10;;;;;;;;;;5031909;28;20057;-52
2023/12/30 08:52:44;;;;;;;66.60;46.60;;;;;;;;;;5032944;28;20024;-52
2023/12/30 08:55:11;;;;;;;65.50;43.75;;;;;;;;;;5042938;28;20501;-53
2023/12/30 08:57:38;;;;;;;71.63;48.33;;;;;;;;;;5049144;28;20446;-60
2023/12/30 09:00:08;;;;;;;62.97;43.63;;;;;;;;;;5044857;28;20098;-49
2023/12/30 09:02:38;;;;;;;69.75;46.38;;;;;;;;;;5032652;28;20067;-54
2023/12/30 09:05:05;;;;;;;65.45;45.67;;;;;;;;;;5040243;28;20037;-49
2023/12/30 09:07:31;;;;;;;;;;;;;;;;;;5033204;28;20033;-50
2023/12/30 09:09:58;;;;;;;66.10;45.90;;;;;;;;;;5047080;28;19955;-49
2023/12/30 09:12:24;;;;;;;66.65;46.58;;;;;;;;;;5050428;28;20043;-50
2023/12/30 09:14:51;;;;;;;67.00;46.03;;;;;;;;;;5050390;28;20454;-54
2023/12/30 09:17:17;;;;;;;72.47;46.90;;;;;;;;;;5051669;28;20032;-51
2023/12/30 09:19:43;;;;;;;73.20;47.88;;;;;;;;;;5050136;28;20510;-49
2023/12/30 09:22:10;;;;;;;68.53;48.95;;;;;;;;;;5051544;28;20114;-50
2023/12/30 09:24:37;;;;;;;69.25;47.38;;;;;;;;;;5051399;28;20506;-49
2023/12/30 09:27:03;;;;;;;62.20;43.00;;;;;;;;;;5051551;28;20065;-53
2023/12/30 09:29:29;;;;;;;62.10;44.35;;;;;;;;;;5051362;28;20032;-49
2023/12/30 09:31:55;;;;;;;60.97;43.78;;;;;;;;;;5051484;28;20036;-49
2023/12/30 09:34:22;;;;;;;63.83;44.22;;;;;;;;;;5051315;28;20033;-49
2023/12/30 09:36:48;;;;;;;64.47;42.42;;;;;;;;;;5051313;28;20036;-49
2023/12/30 09:39:14;;;;;;;59.38;41.13;;;;;;;;;;5049958;28;20056;-49
2023/12/30 09:41:41;;;;;;;59.28;44.10;;;;;;;;;;5052604;28;20076;-50
2023/12/30 09:44:07;;;;;;;62.33;40.55;;;;;;;;;;5055300;28;20422;-51
2023/12/30 09:46:37;;;;;;;67.88;45.38;;;;;;;;;;5055328;28;20106;-49
2023/12/30 09:49:03;;;;;;;65.97;47.42;;;;;;;;;;5055071;28;20033;-52
2023/12/30 09:51:31;;;;;;;65.50;45.70;;;;;;;;;;5055230;28;20025;-49
2023/12/30 09:53:58;;;;;;;67.13;46.28;;;;;;;;;;5054600;28;20025;-52
2023/12/30 09:56:25;;;;;;;60.50;43.72;;;;;;;;;;5053925;28;20029;-54
2023/12/30 09:58:51;;;;;;;;;;;;;;;;;;5055427;28;20112;-50
2023/12/30 10:01:18;;;;;;;62.17;41.92;;;;;;;;;;5053732;28;19913;-53
2023/12/30 10:03:44;;;;;;;67.40;43.58;;;;;;;;;;5054903;28;20067;-54
2023/12/30 10:06:12;;;;;;;61.90;43.43;;;;;;;;;;5054961;28;20086;-50
2023/12/30 10:08:38;;;;;;;60.67;43.15;;;;;;;;;;5054722;28;20365;-57
2023/12/30 10:11:08;;;;;;;63.23;43.50;;;;;;;;;;5053683;28;20033;-53
2023/12/30 10:13:36;;;;;;;67.63;44.60;;;;;;;;;;5054140;28;20274;-53
2023/12/30 10:16:05;;;;;;;64.65;43.85;;;;;;;;;;5052927;28;20033;-53
2023/12/30 10:18:32;;;;;;;63.85;44.55;;;;;;;;;;5052969;28;20400;-53
2023/12/30 10:20:58;;;;;;;63.30;44.17;;;;;;;;;;5054536;28;20044;-51
2023/12/30 10:23:28;;;;;;;77.70;44.78;;;;;;;;;;5054897;28;20032;-52
2023/12/30 10:25:54;;;;;;;60.75;43.00;;;;;;;;;;5054546;28;20112;-55
2023/12/30 10:28:20;;;;;;;63.72;43.75;;;;;;;;;;5054343;28;20037;-52
2023/12/30 10:30:47;;;;;;;65.95;44.35;;;;;;;;;;5053334;28;20460;-49
2023/12/30 10:33:14;;;;;;;63.08;45.10;;;;;;;;;;5054310;28;20029;-53
2023/12/30 10:35:41;;;;;;;61.58;42.38;;;;;;;;;;5069702;28;20033;-52
2023/12/30 10:38:07;;;;;;;;;;;;;;;;;;5054633;28;20070;-53
2023/12/30 10:40:33;;;;;;;60.67;42.05;;;;;;;;;;5054329;28;19948;-52
2023/12/30 10:43:01;;;;;;;58.90;42.03;;;;;;;;;;5052745;28;20037;-53
2023/12/30 10:45:27;;;;;;;57.10;42.10;;;;;;;;;;5052962;28;20104;-54
2023/12/30 10:47:58;;;;;;;57.28;43.53;;;;;;;;;;5052596;28;20460;-54
2023/12/30 10:50:26;;;;;;;62.25;42.20;;;;;;;;;;5054027;28;20028;-55
2023/12/30 10:53:01;;;;;;;59.33;40.92;;;;;;;;;;5051519;28;20039;-53
2023/12/30 10:55:32;;;;;;;59.28;42.13;;;;;;;;;;5054049;28;20120;-52
2023/12/30 10:58:03;;;;;;;57.40;40.90;;;;;;;;;;5052483;28;20044;-56
2023/12/30 11:00:33;;;;;;;60.85;44.33;;;;;;;;;;5054128;28;20498;-51
2023/12/30 11:03:00;;;;;;;59.35;41.75;;;;;;;;;;5053661;28;20033;-52
2023/12/30 11:05:35;;;;;;;60.10;42.70;;;;;;;;;;5053856;28;20028;-55
2023/12/30 11:08:03;;;;;;;58.45;42.83;;;;;;;;;;5053669;28;20037;-51
2023/12/30 11:10:30;;;;;;;60.95;40.78;;;;;;;;;;5052378;28;20029;-54
2023/12/30 11:12:57;;;;;;;60.23;42.00;;;;;;;;;;5053509;28;20045;-53
2023/12/30 11:15:24;;;;;;;56.67;41.13;;;;;;;;;;5052397;28;20018;-51
2023/12/30 11:17:50;;;;;;;60.75;43.50;;;;;;;;;;5053466;28;20155;-52
2023/12/30 11:20:30;;;;;;;58.75;41.70;;;;;;;;;;5053466;28;20032;-54
2023/12/30 11:23:00;;;;;;;65.30;43.55;;;;;;;;;;5053340;28;20032;-52
2023/12/30 11:25:37;;;;;;;64.00;45.28;;;;;;;;;;5052160;28;20132;-55
2023/12/30 11:28:20;;;;;;;62.97;44.30;;;;;;;;;;5053214;28;20093;-55
2023/12/30 11:30:55;;;;;;;59.15;42.70;;;;;;;;;;5052059;28;20107;-52
2023/12/30 11:33:21;;;;;;;59.42;43.40;;;;;;;;;;5053170;28;20028;-50
2023/12/30 11:35:51;;;;;;;57.13;42.00;;;;;;;;;;5052210;28;20028;-53
2023/12/30 11:38:19;;;;;;;62.17;43.00;;;;;;;;;;5052968;28;20029;-52
2023/12/30 11:40:45;;;;;;;;;;;;;;;;;;5053622;28;20052;-54
2023/12/30 11:43:11;;;;;;;62.20;41.22;;;;;;;;;;5052110;28;20270;-50
2023/12/30 11:45:37;;;;;;;59.42;42.50;;;;;;;;;;5047956;28;20021;-51
2023/12/30 11:48:04;;;;;;;56.23;40.37;;;;;;;;;;5032616;28;20025;-53
2023/12/30 11:50:30;;;;;;;61.97;41.58;;;;;;;;;;5037015;28;20527;-49
2023/12/30 11:52:57;;;;;;;57.65;41.67;;;;;;;;;;5042390;28;20025;-49
2023/12/30 11:55:24;;;;;;;61.55;42.80;;;;;;;;;;5032028;28;20029;-54
2023/12/30 11:57:51;;;;;;;59.30;41.33;;;;;;;;;;5044461;28;20021;-54
2023/12/30 12:00:17;;;;;;;60.65;41.28;;;;;;;;;;5032752;28;20034;-52
2023/12/30 12:02:43;;;;;;;56.65;42.15;;;;;;;;;;5043841;28;20078;-52
2023/12/30 12:05:10;;;;;;;59.07;42.50;;;;;;;;;;5068555;28;20032;-53
2023/12/30 12:07:36;;;;;;;60.10;41.78;;;;;;;;;;5059583;28;20035;-53
2023/12/30 12:10:03;;;;;;;61.45;42.38;;;;;;;;;;5062349;28;20398;-57
2023/12/30 12:12:36;;;;;;;57.60;41.85;;;;;;;;;;5065996;28;20029;-53
2023/12/30 12:15:04;;;;;;;61.10;43.15;;;;;;;;;;5041168;28;20030;-53
2023/12/30 12:17:30;;;;;;;;;;;;;;;;;;5031559;28;20040;-52
2023/12/30 12:19:56;;;;;;;58.78;40.47;;;;;;;;;;5037113;28;19912;-51
2023/12/30 12:22:22;;;;;;;55.53;40.72;;;;;;;;;;5051035;28;20466;-52
2023/12/30 12:24:49;;;;;;;59.13;40.47;;;;;;;;;;5049238;28;20104;-48
2023/12/30 12:27:19;;;;;;;53.03;39.87;;;;;;;;;;5050878;28;20108;-50
2023/12/30 12:29:46;;;;;;;54.28;40.88;;;;;;;;;;5046469;28;20025;-49
2023/12/30 12:32:15;;;;;;;57.00;41.42;;;;;;;;;;5043744;28;20037;-51
2023/12/30 12:34:42;;;;;;;57.85;39.80;;;;;;;;;;5034018;28;20035;-54
2023/12/30 12:37:10;;;;;;;62.83;41.60;;;;;;;;;;5040588;28;20061;-51
2023/12/30 12:39:36;;;;;;;61.00;43.22;;;;;;;;;;5030596;28;20107;-55
2023/12/30 12:42:03;;;;;;;56.45;41.08;;;;;;;;;;5031702;28;20472;-54
2023/12/30 12:44:29;;;;;;;62.30;43.37;;;;;;;;;;5032838;28;20036;-51
2023/12/30 12:46:55;;;;;;;64.57;43.22;;;;;;;;;;5033747;28;20041;-50
2023/12/30 12:49:22;;;;;;;79.03;56.40;;;;;;;;;;5038914;28;20426;-51
2023/12/30 12:51:52;;;;;;;60.33;42.17;;;;;;;;;;5053782;28;20013;-51
2023/12/30 12:54:19;;;;;;;60.70;42.58;;;;;;;;;;5035547;28;20054;-50
2023/12/30 12:56:46;;;;;;;59.05;42.38;;;;;;;;;;5038275;28;20435;-53
2023/12/30 12:59:12;;;;;;;63.55;43.08;;;;;;;;;;5044454;28;20047;-55
2023/12/30 13:01:40;;;;;;;56.13;39.70;;;;;;;;;;5037406;28;20447;-54
2023/12/30 13:04:06;;;;;;;;;;;;;;;;;;5035419;28;20029;-48
2023/12/30 13:06:32;;;;;;;59.92;41.08;;;;;;;;;;5048541;28;19948;-50
2023/12/30 13:08:59;;;;;;;69.20;40.83;;;;;;;;;;5049990;28;20048;-50
2023/12/30 13:11:26;;;;;;;56.20;40.28;;;;;;;;;;5049272;28;20035;-50
2023/12/30 13:13:53;;;;;;;;;;;;;;;;;;5036040;28;20061;-49
2023/12/30 13:16:23;;;;;;;52.03;37.97;;;;;;;;;;5054555;28;19919;-49
2023/12/30 13:18:50;;;;;;;59.20;41.10;;;;;;;;;;5048503;28;20452;-50
2023/12/30 13:21:16;;;;;;;50.90;38.07;;;;;;;;;;5048735;28;20075;-51
2023/12/30 13:23:43;;;;;;;60.80;42.55;;;;;;;;;;5045009;28;20025;-50
2023/12/30 13:26:10;;;;;;;57.20;42.25;;;;;;;;;;5030077;28;20456;-52
2023/12/30 13:28:37;;;;;;;;;;;;;;;;;;5030252;28;20034;-49
2023/12/30 13:31:04;;;;;;;55.60;38.22;;;;;;;;;;5030308;28;19948;-49
2023/12/30 13:33:32;;;;;;;;;;;;;;;;;;5038151;28;20033;-53
2023/12/30 13:35:58;;;;;;;;;;;;;;;;;;5048469;28;20327;-53
2023/12/30 13:38:27;;;;;;;58.72;39.10;;;;;;;;;;5030830;28;20372;-49
2023/12/30 13:40:58;;;;;;;56.55;40.85;;;;;;;;;;5041031;28;20404;-52
2023/12/30 13:43:26;;;;;;;58.97;41.20;;;;;;;;;;5055188;28;20108;-50
2023/12/30 13:46:00;;;;;;;56.85;40.40;;;;;;;;;;5048439;28;20017;-51
2023/12/30 13:51:15;;;;;;;59.13;41.63;;;;;;;;;;5049178;28;20037;-50
2023/12/30 13:53:41;;;;;;;56.03;40.30;;;;;;;;;;5049688;28;20092;-49
2023/12/30 13:56:15;;;;;;;61.75;40.42;;;;;;;;;;5049047;28;20061;-53
2023/12/30 13:58:43;;;;;;;56.88;40.88;;;;;;;;;;5047793;28;20061;-49
2023/12/30 14:01:10;;;;;;;50.15;38.28;;;;;;;;;;5030694;28;20018;-50
2023/12/30 14:03:37;;;;;;;54.45;40.75;;;;;;;;;;5030979;28;20033;-47
2023/12/30 14:06:05;;;;;;;57.35;39.55;;;;;;;;;;5031190;28;20014;-49
2023/12/30 14:08:42;;;;;;;56.35;41.13;;;;;;;;;;5029713;28;20026;-48
2023/12/30 14:11:20;;;;;;;55.03;39.75;;;;;;;;;;5031233;28;20022;-50
2023/12/30 14:13:49;;;;;;;54.58;39.13;;;;;;;;;;5031014;28;20022;-50
2023/12/30 14:16:17;;;;;;;52.25;40.72;;;;;;;;;;5030974;28;20396;-49
2023/12/30 14:18:43;;;;;;;;;;;;;;;;;;5030073;28;20056;-52
2023/12/30 14:21:09;;;;;;;54.15;40.50;;;;;;;;;;5029660;28;19928;-53
2023/12/30 14:23:35;;;;;;;53.88;38.08;;;;;;;;;;5030908;28;20037;-50